createdAt,value
2018-09-21T00:00:18.602Z,991.87
2018-09-21T00:01:18.588Z,991.91
2018-09-21T00:02:18.614Z,991.90
2018-09-21T00:03:18.576Z,991.92
2018-09-21T00:04:18.571Z,991.92
2018-09-21T00:05:18.563Z,991.92
2018-09-21T00:06:18.536Z,992.00
2018-09-21T00:07:18.533Z,991.94
2018-09-21T00:08:18.511Z,991.94
2018-09-21T00:09:18.518Z,991.94
2018-09-21T00:10:18.497Z,991.94
2018-09-21T00:11:18.494Z,991.97
2018-09-21T00:12:18.473Z,992.00
2018-09-21T00:13:18.463Z,991.97
2018-09-21T00:14:18.466Z,991.93
2018-09-21T00:15:18.445Z,991.93
2018-09-21T00:16:18.435Z,991.92
2018-09-21T00:17:18.416Z,991.91
2018-09-21T00:18:18.404Z,991.91
2018-09-21T00:19:18.390Z,991.90
2018-09-21T00:20:18.399Z,991.87
2018-09-21T00:21:18.368Z,991.91
2018-09-21T00:22:18.589Z,991.90
2018-09-21T00:23:18.361Z,991.87
2018-09-21T00:24:18.602Z,991.83
2018-09-21T00:25:18.335Z,991.83
2018-09-21T00:26:18.369Z,991.75
2018-09-21T00:27:18.306Z,991.78
2018-09-21T00:28:18.294Z,991.76
2018-09-21T00:29:18.299Z,991.75
2018-09-21T00:30:18.269Z,991.70
2018-09-21T00:31:18.263Z,991.75
2018-09-21T00:32:18.248Z,991.74
2018-09-21T00:33:18.239Z,991.72
2018-09-21T00:34:18.224Z,991.72
2018-09-21T00:35:18.224Z,991.68
2018-09-21T00:36:18.215Z,991.67
2018-09-21T00:37:18.602Z,991.73
2018-09-21T00:38:18.184Z,991.75
2018-09-21T00:39:18.178Z,991.67
2018-09-21T00:40:18.159Z,991.68
2018-09-21T00:41:18.202Z,991.68
2018-09-21T00:42:18.171Z,991.66
2018-09-21T00:43:18.124Z,991.65
2018-09-21T00:44:18.178Z,991.59
2018-09-21T00:45:18.371Z,991.62
2018-09-21T00:46:18.365Z,991.64
2018-09-21T00:47:18.190Z,991.63
2018-09-21T00:48:18.080Z,991.61
2018-09-21T00:49:18.062Z,991.58
2018-09-21T00:50:18.050Z,991.68
2018-09-21T00:51:18.039Z,991.62
2018-09-21T00:52:18.028Z,991.58
2018-09-21T00:53:18.012Z,991.61
2018-09-21T00:54:18.007Z,991.62
2018-09-21T00:55:17.993Z,991.57
2018-09-21T00:56:17.990Z,991.58
2018-09-21T00:57:17.987Z,991.61
2018-09-21T00:58:17.958Z,991.64
2018-09-21T00:59:18.350Z,991.58
2018-09-21T01:00:18.200Z,991.56
2018-09-21T01:01:17.924Z,991.52
2018-09-21T01:02:17.929Z,991.54
2018-09-21T01:03:18.162Z,991.49
2018-09-21T01:04:17.894Z,991.48
2018-09-21T01:05:17.895Z,991.51
2018-09-21T01:06:18.132Z,991.49
2018-09-21T01:07:17.857Z,991.52
2018-09-21T01:08:17.857Z,991.45
2018-09-21T01:09:17.839Z,991.43
2018-09-21T01:10:17.829Z,991.39
2018-09-21T01:11:18.099Z,991.43
2018-09-21T01:12:17.803Z,991.38
2018-09-21T01:13:17.801Z,991.38
2018-09-21T01:14:17.783Z,991.35
2018-09-21T01:15:17.774Z,991.34
2018-09-21T01:16:17.763Z,991.31
2018-09-21T01:17:17.761Z,991.26
2018-09-21T01:18:17.737Z,991.27
2018-09-21T01:19:17.725Z,991.20
2018-09-21T01:20:17.720Z,991.20
2018-09-21T01:21:17.710Z,991.18
2018-09-21T01:22:17.692Z,991.21
2018-09-21T01:23:17.682Z,991.12
2018-09-21T01:24:17.667Z,991.14
2018-09-21T01:25:17.668Z,991.09
2018-09-21T01:26:17.929Z,991.09
2018-09-21T01:27:17.909Z,991.09
2018-09-21T01:28:17.630Z,991.06
2018-09-21T01:29:17.622Z,991.07
2018-09-21T01:30:17.606Z,991.02
2018-09-21T01:31:17.603Z,990.96
2018-09-21T01:32:17.588Z,990.96
2018-09-21T01:33:17.839Z,990.93
2018-09-21T01:34:17.580Z,990.98
2018-09-21T01:35:17.561Z,990.95
2018-09-21T01:36:17.539Z,990.93
2018-09-21T01:37:17.527Z,990.91
2018-09-21T01:38:17.515Z,990.93
2018-09-21T01:39:17.526Z,990.94
2018-09-21T01:40:17.496Z,990.92
2018-09-21T01:41:17.492Z,990.91
2018-09-21T01:42:17.516Z,990.88
2018-09-21T01:43:17.463Z,990.86
2018-09-21T01:44:17.447Z,990.81
2018-09-21T01:45:17.705Z,990.81
2018-09-21T01:46:17.434Z,990.80
2018-09-21T01:47:17.496Z,990.80
2018-09-21T01:48:17.411Z,990.84
2018-09-21T01:49:17.401Z,990.81
2018-09-21T01:50:17.393Z,990.84
2018-09-21T01:51:17.374Z,990.80
2018-09-21T01:52:17.359Z,990.79
2018-09-21T01:53:17.350Z,990.80
2018-09-21T01:54:17.346Z,990.81
2018-09-21T01:55:17.329Z,990.76
2018-09-21T01:56:17.362Z,990.78
2018-09-21T01:57:17.564Z,990.78
2018-09-21T01:58:17.295Z,990.76
2018-09-21T01:59:17.288Z,990.73
2018-09-21T02:00:17.280Z,990.84
2018-09-21T02:01:17.264Z,990.73
2018-09-21T02:02:17.270Z,990.74
2018-09-21T02:03:17.242Z,990.73
2018-09-21T02:04:17.224Z,990.70
2018-09-21T02:05:17.217Z,990.64
2018-09-21T02:06:17.223Z,990.55
2018-09-21T02:07:17.726Z,990.58
2018-09-21T02:08:17.188Z,990.56
2018-09-21T02:09:17.195Z,990.58
2018-09-21T02:10:17.423Z,990.52
2018-09-21T02:11:17.152Z,990.59
2018-09-21T02:12:17.241Z,990.49
2018-09-21T02:13:17.128Z,990.50
2018-09-21T02:14:17.123Z,990.45
2018-09-21T02:15:17.120Z,990.52
2018-09-21T02:16:17.114Z,990.46
2018-09-21T02:17:17.102Z,990.48
2018-09-21T02:18:17.072Z,990.45
2018-09-21T02:19:17.078Z,990.44
2018-09-21T02:20:17.067Z,990.41
2018-09-21T02:21:17.042Z,990.32
2018-09-21T02:22:17.031Z,990.35
2018-09-21T02:23:17.018Z,990.30
2018-09-21T02:24:17.010Z,990.29
2018-09-21T02:25:16.995Z,990.27
2018-09-21T02:26:17.007Z,990.25
2018-09-21T02:27:16.986Z,990.20
2018-09-21T02:28:17.233Z,990.19
2018-09-21T02:29:16.965Z,990.23
2018-09-21T02:30:17.065Z,990.15
2018-09-21T02:31:16.932Z,990.11
2018-09-21T02:32:16.922Z,990.10
2018-09-21T02:33:16.905Z,990.11
2018-09-21T02:34:16.905Z,990.09
2018-09-21T02:35:16.888Z,990.11
2018-09-21T02:36:16.885Z,990.03
2018-09-21T02:37:16.983Z,989.98
2018-09-21T02:38:17.147Z,990.02
2018-09-21T02:39:17.103Z,990.00
2018-09-21T02:40:16.828Z,990.02
2018-09-21T02:41:16.886Z,989.89
2018-09-21T02:42:16.828Z,989.91
2018-09-21T02:43:16.798Z,989.89
2018-09-21T02:44:17.109Z,989.82
2018-09-21T02:45:16.772Z,989.80
2018-09-21T02:46:16.768Z,989.79
2018-09-21T02:47:16.760Z,989.82
2018-09-21T02:48:16.744Z,989.79
2018-09-21T02:49:17.008Z,989.77
2018-09-21T02:50:16.719Z,989.77
2018-09-21T02:51:16.978Z,989.78
2018-09-21T02:52:16.704Z,989.68
2018-09-21T02:53:16.948Z,989.71
2018-09-21T02:54:16.700Z,989.66
2018-09-21T02:55:16.684Z,989.72
2018-09-21T02:56:16.655Z,989.65
2018-09-21T02:57:16.648Z,989.62
2018-09-21T02:58:16.635Z,989.63
2018-09-21T02:59:16.620Z,989.63
2018-09-21T03:00:16.623Z,989.64
2018-09-21T03:01:16.601Z,989.61
2018-09-21T03:02:16.640Z,989.54
2018-09-21T03:03:16.589Z,989.51
2018-09-21T03:04:16.692Z,989.53
2018-09-21T03:05:16.602Z,989.46
2018-09-21T03:06:16.814Z,989.51
2018-09-21T03:07:16.801Z,989.46
2018-09-21T03:08:16.534Z,989.46
2018-09-21T03:09:16.770Z,989.45
2018-09-21T03:10:16.494Z,989.46
2018-09-21T03:11:16.493Z,989.49
2018-09-21T03:12:16.475Z,989.51
2018-09-21T03:13:16.493Z,989.50
2018-09-21T03:14:16.452Z,989.47
2018-09-21T03:15:16.445Z,989.46
2018-09-21T03:16:16.430Z,989.50
2018-09-21T03:17:16.425Z,989.44
2018-09-21T03:18:16.420Z,989.42
2018-09-21T03:19:16.723Z,989.46
2018-09-21T03:20:16.645Z,989.42
2018-09-21T03:21:16.404Z,989.37
2018-09-21T03:22:16.406Z,989.34
2018-09-21T03:23:16.415Z,989.32
2018-09-21T03:24:16.353Z,989.28
2018-09-21T03:25:16.334Z,989.25
2018-09-21T03:26:16.321Z,989.17
2018-09-21T03:27:16.328Z,989.17
2018-09-21T03:28:16.296Z,989.07
2018-09-21T03:29:16.290Z,989.09
2018-09-21T03:30:16.274Z,989.13
2018-09-21T03:31:16.528Z,989.07
2018-09-21T03:32:16.257Z,989.07
2018-09-21T03:33:16.241Z,989.06
2018-09-21T03:34:16.236Z,989.07
2018-09-21T03:35:16.328Z,989.04
2018-09-21T03:36:16.215Z,989.07
2018-09-21T03:37:16.212Z,989.05
2018-09-21T03:38:16.193Z,989.01
2018-09-21T03:39:16.179Z,989.00
2018-09-21T03:40:16.170Z,988.94
2018-09-21T03:41:16.155Z,988.94
2018-09-21T03:42:16.419Z,988.96
2018-09-21T03:43:16.137Z,988.88
2018-09-21T03:44:16.390Z,988.88
2018-09-21T03:45:16.109Z,988.87
2018-09-21T03:46:16.100Z,988.87
2018-09-21T03:47:16.093Z,988.80
2018-09-21T03:48:16.093Z,988.70
2018-09-21T03:49:16.331Z,988.67
2018-09-21T03:50:16.342Z,988.65
2018-09-21T03:51:16.049Z,988.62
2018-09-21T03:52:16.032Z,988.56
2018-09-21T03:53:16.019Z,988.57
2018-09-21T03:54:16.024Z,988.55
2018-09-21T03:55:16.263Z,988.65
2018-09-21T03:56:16.254Z,988.62
2018-09-21T03:57:15.989Z,988.62
2018-09-21T03:58:15.967Z,988.58
2018-09-21T03:59:15.955Z,988.60
2018-09-21T04:00:15.945Z,988.54
2018-09-21T04:01:15.995Z,988.55
2018-09-21T04:02:15.939Z,988.63
2018-09-21T04:03:15.975Z,988.55
2018-09-21T04:04:15.906Z,988.56
2018-09-21T04:05:15.892Z,988.61
2018-09-21T04:06:15.888Z,988.55
2018-09-21T04:07:15.944Z,988.57
2018-09-21T04:08:16.126Z,988.60
2018-09-21T04:09:15.959Z,988.48
2018-09-21T04:10:16.100Z,988.43
2018-09-21T04:11:15.822Z,988.46
2018-09-21T04:12:15.808Z,988.41
2018-09-21T04:13:15.809Z,988.44
2018-09-21T04:14:15.805Z,988.47
2018-09-21T04:15:16.038Z,988.48
2018-09-21T04:16:15.770Z,988.39
2018-09-21T04:17:15.762Z,988.41
2018-09-21T04:18:15.753Z,988.35
2018-09-21T04:19:15.739Z,988.30
2018-09-21T04:20:15.725Z,988.36
2018-09-21T04:21:15.714Z,988.30
2018-09-21T04:22:15.708Z,988.26
2018-09-21T04:23:15.692Z,988.22
2018-09-21T04:24:15.677Z,988.18
2018-09-21T04:25:15.668Z,988.16
2018-09-21T04:26:15.789Z,988.20
2018-09-21T04:27:15.660Z,988.14
2018-09-21T04:28:15.638Z,988.16
2018-09-21T04:29:15.628Z,988.10
2018-09-21T04:30:15.876Z,988.09
2018-09-21T04:31:15.625Z,988.11
2018-09-21T04:32:15.591Z,988.11
2018-09-21T04:33:15.588Z,988.05
2018-09-21T04:34:15.593Z,988.13
2018-09-21T04:35:15.560Z,988.12
2018-09-21T04:36:15.600Z,988.14
2018-09-21T04:37:15.815Z,988.15
2018-09-21T04:38:15.526Z,988.13
2018-09-21T04:39:15.519Z,988.17
2018-09-21T04:40:15.504Z,988.15
2018-09-21T04:41:15.609Z,988.21
2018-09-21T04:42:15.478Z,988.15
2018-09-21T04:43:15.470Z,988.21
2018-09-21T04:44:15.460Z,988.18
2018-09-21T04:45:15.447Z,988.19
2018-09-21T04:46:15.452Z,988.22
2018-09-21T04:47:15.422Z,988.23
2018-09-21T04:48:15.415Z,988.26
2018-09-21T04:49:15.405Z,988.25
2018-09-21T04:50:15.493Z,988.24
2018-09-21T04:51:15.645Z,988.27
2018-09-21T04:52:15.420Z,988.32
2018-09-21T04:53:15.360Z,988.33
2018-09-21T04:54:15.347Z,988.36
2018-09-21T04:55:15.340Z,988.34
2018-09-21T04:56:15.335Z,988.33
2018-09-21T04:57:15.574Z,988.33
2018-09-21T04:58:15.304Z,988.30
2018-09-21T04:59:15.290Z,988.33
2018-09-21T05:00:15.279Z,988.31
2018-09-21T05:01:15.553Z,988.36
2018-09-21T05:02:15.267Z,988.36
2018-09-21T05:03:15.247Z,988.41
2018-09-21T05:04:15.236Z,988.41
2018-09-21T05:05:15.217Z,988.28
2018-09-21T05:06:15.475Z,988.29
2018-09-21T05:07:15.219Z,988.29
2018-09-21T05:08:15.461Z,988.24
2018-09-21T05:09:15.192Z,988.23
2018-09-21T05:10:15.174Z,988.12
2018-09-21T05:11:15.155Z,988.22
2018-09-21T05:12:15.205Z,988.08
2018-09-21T05:13:15.407Z,988.10
2018-09-21T05:14:15.405Z,988.14
2018-09-21T05:15:15.126Z,988.06
2018-09-21T05:16:15.107Z,988.08
2018-09-21T05:17:15.093Z,988.03
2018-09-21T05:18:15.096Z,988.10
2018-09-21T05:19:15.187Z,988.06
2018-09-21T05:20:15.067Z,988.14
2018-09-21T05:21:15.050Z,988.01
2018-09-21T05:22:15.043Z,988.09
2018-09-21T05:23:15.027Z,988.02
2018-09-21T05:24:15.022Z,988.11
2018-09-21T05:25:15.002Z,988.15
2018-09-21T05:26:14.996Z,988.13
2018-09-21T05:27:14.997Z,988.09
2018-09-21T05:28:14.984Z,988.10
2018-09-21T05:29:15.229Z,988.06
2018-09-21T05:30:15.997Z,987.99
2018-09-21T05:31:14.940Z,988.06
2018-09-21T05:32:14.957Z,988.00
2018-09-21T05:33:15.034Z,988.02
2018-09-21T05:34:14.921Z,988.07
2018-09-21T05:35:14.954Z,988.05
2018-09-21T05:36:14.878Z,988.12
2018-09-21T05:37:15.152Z,988.06
2018-09-21T05:38:15.117Z,988.11
2018-09-21T05:39:14.865Z,988.06
2018-09-21T05:40:14.852Z,988.01
2018-09-21T05:41:14.834Z,988.11
2018-09-21T05:42:14.963Z,988.06
2018-09-21T05:43:14.835Z,988.03
2018-09-21T05:44:15.170Z,987.93
2018-09-21T05:45:14.786Z,987.90
2018-09-21T05:46:14.994Z,987.87
2018-09-21T05:47:14.846Z,987.83
2018-09-21T05:48:14.762Z,987.85
2018-09-21T05:49:14.753Z,987.93
2018-09-21T05:50:14.736Z,987.95
2018-09-21T05:51:14.742Z,987.97
2018-09-21T05:52:14.709Z,987.94
2018-09-21T05:53:14.883Z,987.99
2018-09-21T05:54:14.694Z,987.98
2018-09-21T05:55:14.671Z,988.01
2018-09-21T05:56:14.790Z,987.95
2018-09-21T05:57:14.650Z,988.06
2018-09-21T05:58:14.640Z,988.07
2018-09-21T05:59:14.679Z,988.06
2018-09-21T06:00:14.619Z,988.08
2018-09-21T06:01:14.617Z,987.99
2018-09-21T06:02:15.799Z,988.09
2018-09-21T06:03:14.597Z,988.13
2018-09-21T06:04:14.589Z,988.08
2018-09-21T06:05:14.767Z,988.10
2018-09-21T06:06:14.830Z,988.14
2018-09-21T06:07:14.545Z,988.12
2018-09-21T06:08:14.532Z,988.15
2018-09-21T06:09:14.529Z,988.23
2018-09-21T06:10:14.523Z,988.28
2018-09-21T06:11:14.500Z,988.32
2018-09-21T06:12:14.754Z,988.31
2018-09-21T06:13:14.676Z,988.21
2018-09-21T06:14:14.460Z,988.24
2018-09-21T06:15:19.255Z,988.31
2018-09-21T06:16:14.454Z,988.26
2018-09-21T06:17:14.438Z,988.22
2018-09-21T06:18:14.424Z,988.19
2018-09-21T06:19:14.425Z,988.21
2018-09-21T06:20:14.436Z,988.11
2018-09-21T06:21:14.433Z,988.12
2018-09-21T06:22:14.376Z,988.14
2018-09-21T06:23:14.380Z,988.12
2018-09-21T06:24:14.630Z,988.18
2018-09-21T06:25:14.348Z,988.18
2018-09-21T06:26:15.039Z,988.22
2018-09-21T06:27:14.344Z,988.10
2018-09-21T06:28:14.348Z,988.11
2018-09-21T06:29:14.425Z,988.12
2018-09-21T06:30:17.278Z,988.12
2018-09-21T06:31:14.395Z,988.09
2018-09-21T06:32:14.533Z,988.15
2018-09-21T06:33:14.254Z,988.18
2018-09-21T06:34:14.255Z,988.16
2018-09-21T06:35:14.234Z,988.21
2018-09-21T06:36:14.233Z,988.09
2018-09-21T06:37:14.219Z,988.14
2018-09-21T06:38:14.477Z,988.03
2018-09-21T06:39:14.185Z,988.10
2018-09-21T06:40:14.182Z,988.04
2018-09-21T06:41:14.161Z,988.09
2018-09-21T06:42:14.164Z,988.04
2018-09-21T06:43:14.172Z,988.05
2018-09-21T06:44:14.153Z,988.07
2018-09-21T06:45:14.126Z,988.06
2018-09-21T06:46:14.112Z,988.07
2018-09-21T06:47:14.244Z,988.04
2018-09-21T06:48:14.081Z,988.04
2018-09-21T06:49:14.346Z,988.02
2018-09-21T06:50:14.098Z,988.03
2018-09-21T06:51:14.120Z,988.05
2018-09-21T06:52:14.057Z,988.04
2018-09-21T06:53:14.049Z,988.03
2018-09-21T06:54:14.418Z,988.03
2018-09-21T06:55:14.047Z,988.11
2018-09-21T06:56:14.028Z,988.07
2018-09-21T06:57:14.275Z,988.12
2018-09-21T06:58:13.985Z,988.15
2018-09-21T06:59:13.973Z,988.19
2018-09-21T07:00:20.654Z,988.19
2018-09-21T07:01:13.971Z,988.21
2018-09-21T07:02:14.248Z,988.24
2018-09-21T07:03:13.925Z,988.26
2018-09-21T07:04:13.925Z,988.24
2018-09-21T07:05:13.913Z,988.22
2018-09-21T07:06:13.909Z,988.18
2018-09-21T07:07:13.888Z,988.19
2018-09-21T07:08:13.875Z,988.20
2018-09-21T07:09:13.942Z,988.16
2018-09-21T07:10:14.129Z,988.20
2018-09-21T07:11:13.842Z,988.21
2018-09-21T07:12:13.832Z,988.20
2018-09-21T07:13:13.834Z,988.23
2018-09-21T07:14:13.809Z,988.26
2018-09-21T07:15:13.811Z,988.18
2018-09-21T07:16:14.559Z,988.18
2018-09-21T07:17:13.784Z,988.25
2018-09-21T07:18:13.781Z,988.20
2018-09-21T07:19:13.837Z,988.18
2018-09-21T07:20:14.017Z,988.09
2018-09-21T07:21:13.744Z,988.04
2018-09-21T07:22:13.750Z,988.07
2018-09-21T07:23:13.705Z,988.08
2018-09-21T07:24:13.709Z,988.06
2018-09-21T07:25:13.964Z,988.05
2018-09-21T07:26:13.687Z,988.01
2018-09-21T07:27:13.690Z,987.98
2018-09-21T07:28:14.820Z,988.00
2018-09-21T07:29:13.653Z,987.95
2018-09-21T07:30:26.435Z,987.96
2018-09-21T07:31:13.646Z,988.04
2018-09-21T07:32:13.629Z,987.96
2018-09-21T07:33:13.612Z,987.92
2018-09-21T07:34:13.594Z,987.92
2018-09-21T07:35:13.605Z,987.98
2018-09-21T07:36:13.592Z,988.06
2018-09-21T07:37:13.560Z,988.06
2018-09-21T07:38:13.546Z,988.00
2018-09-21T07:39:13.546Z,988.07
2018-09-21T07:40:13.567Z,987.97
2018-09-21T07:41:13.527Z,988.07
2018-09-21T07:42:13.557Z,988.11
2018-09-21T07:43:13.589Z,988.08
2018-09-21T07:44:13.489Z,988.02
2018-09-21T07:45:13.768Z,988.06
2018-09-21T07:46:13.469Z,987.99
2018-09-21T07:47:13.452Z,987.91
2018-09-21T07:48:13.572Z,987.98
2018-09-21T07:49:13.435Z,987.97
2018-09-21T07:50:13.419Z,988.01
2018-09-21T07:51:13.426Z,988.01
2018-09-21T07:52:13.428Z,987.93
2018-09-21T07:53:13.404Z,987.98
2018-09-21T07:54:13.919Z,988.02
2018-09-21T07:55:13.447Z,987.99
2018-09-21T07:56:13.633Z,988.05
2018-09-21T07:57:13.355Z,988.07
2018-09-21T07:58:13.377Z,987.95
2018-09-21T07:59:13.724Z,987.99
2018-09-21T08:00:13.481Z,988.03
2018-09-21T08:01:13.363Z,987.96
2018-09-21T08:02:13.330Z,987.98
2018-09-21T08:03:13.285Z,987.85
2018-09-21T08:04:13.284Z,987.71
2018-09-21T08:05:13.331Z,987.68
2018-09-21T08:06:13.240Z,987.70
2018-09-21T08:07:13.282Z,987.63
2018-09-21T08:08:13.233Z,987.62
2018-09-21T08:09:13.209Z,987.60
2018-09-21T08:10:13.230Z,987.71
2018-09-21T08:11:13.457Z,987.74
2018-09-21T08:12:13.290Z,987.76
2018-09-21T08:13:13.265Z,987.79
2018-09-21T08:14:13.158Z,987.79
2018-09-21T08:15:13.241Z,987.84
2018-09-21T08:16:13.142Z,987.79
2018-09-21T08:17:13.282Z,987.80
2018-09-21T08:18:13.131Z,987.74
2018-09-21T08:19:13.098Z,987.79
2018-09-21T08:20:13.177Z,987.86
2018-09-21T08:21:13.079Z,987.84
2018-09-21T08:22:13.079Z,987.94
2018-09-21T08:23:13.901Z,987.94
2018-09-21T08:24:13.048Z,987.90
2018-09-21T08:25:13.114Z,987.97
2018-09-21T08:26:13.051Z,988.01
2018-09-21T08:27:13.036Z,988.08
2018-09-21T08:28:13.034Z,988.00
2018-09-21T08:29:13.397Z,988.01
2018-09-21T08:30:12.987Z,988.06
2018-09-21T08:31:28.545Z,988.08
2018-09-21T08:32:12.978Z,988.09
2018-09-21T08:33:12.969Z,988.15
2018-09-21T08:34:12.932Z,988.17
2018-09-21T08:35:12.970Z,988.14
2018-09-21T08:36:12.922Z,988.19
2018-09-21T08:37:13.939Z,988.08
2018-09-21T08:38:12.902Z,988.14
2018-09-21T08:39:13.135Z,988.17
2018-09-21T08:40:12.873Z,988.24
2018-09-21T08:41:12.885Z,988.20
2018-09-21T08:42:12.844Z,988.23
2018-09-21T08:43:13.159Z,988.33
2018-09-21T08:44:12.827Z,988.31
2018-09-21T08:45:13.333Z,988.30
2018-09-21T08:46:12.818Z,988.35
2018-09-21T08:47:13.107Z,988.37
2018-09-21T08:48:13.058Z,988.33
2018-09-21T08:49:13.774Z,988.31
2018-09-21T08:50:12.764Z,988.38
2018-09-21T08:51:13.022Z,988.39
2018-09-21T08:52:12.766Z,988.39
2018-09-21T08:53:12.790Z,988.34
2018-09-21T08:54:12.716Z,988.31
2018-09-21T08:55:12.715Z,988.34
2018-09-21T08:56:13.901Z,988.21
2018-09-21T08:57:12.700Z,988.15
2018-09-21T08:58:12.670Z,988.17
2018-09-21T08:59:12.667Z,988.21
2018-09-21T09:00:12.648Z,988.21
2018-09-21T09:01:13.255Z,988.17
2018-09-21T09:02:12.633Z,988.19
2018-09-21T09:03:12.635Z,988.22
2018-09-21T09:04:12.602Z,988.32
2018-09-21T09:05:12.605Z,988.25
2018-09-21T09:06:12.575Z,988.20
2018-09-21T09:07:12.583Z,988.17
2018-09-21T09:08:12.580Z,988.23
2018-09-21T09:09:12.551Z,988.26
2018-09-21T09:10:12.556Z,988.35
2018-09-21T09:11:12.553Z,988.35
2018-09-21T09:12:12.514Z,988.43
2018-09-21T09:13:12.530Z,988.45
2018-09-21T09:14:12.751Z,988.56
2018-09-21T09:15:12.477Z,988.59
2018-09-21T09:16:13.511Z,988.62
2018-09-21T09:17:16.952Z,988.66
2018-09-21T09:18:12.437Z,988.54
2018-09-21T09:19:12.428Z,988.79
2018-09-21T09:20:12.721Z,988.63
2018-09-21T09:21:12.411Z,988.64
2018-09-21T09:22:12.687Z,988.75
2018-09-21T09:23:12.446Z,988.78
2018-09-21T09:24:12.647Z,988.77
2018-09-21T09:25:12.373Z,989.13
2018-09-21T09:26:12.360Z,989.17
2018-09-21T09:27:12.353Z,989.10
2018-09-21T09:28:12.612Z,989.11
2018-09-21T09:29:20.472Z,989.40
2018-09-21T09:30:12.473Z,989.23
2018-09-21T09:31:22.156Z,989.52
2018-09-21T09:32:12.289Z,989.42
2018-09-21T09:33:12.291Z,989.11
2018-09-21T09:34:12.271Z,989.34
2018-09-21T09:35:12.523Z,989.58
2018-09-21T09:36:12.244Z,989.52
2018-09-21T09:37:12.269Z,989.44
2018-09-21T09:38:12.220Z,989.57
2018-09-21T09:39:12.226Z,989.67
2018-09-21T09:40:12.216Z,989.93
2018-09-21T09:41:12.194Z,989.85
2018-09-21T09:42:12.192Z,989.91
2018-09-21T09:43:12.496Z,989.86
2018-09-21T09:44:12.162Z,989.88
2018-09-21T09:45:14.136Z,989.89
2018-09-21T09:46:12.137Z,990.22
2018-09-21T09:47:13.335Z,990.08
2018-09-21T09:48:12.119Z,990.03
2018-09-21T09:49:12.417Z,990.06
2018-09-21T09:50:12.094Z,990.14
2018-09-21T09:51:12.089Z,990.20
2018-09-21T09:52:12.099Z,990.34
2018-09-21T09:53:12.064Z,990.22
2018-09-21T09:54:12.054Z,990.27
2018-09-21T09:55:12.036Z,990.16
2018-09-21T09:56:12.059Z,990.22
2018-09-21T09:57:12.012Z,990.43
2018-09-21T09:58:12.023Z,990.35
2018-09-21T09:59:12.266Z,990.44
2018-09-21T10:00:12.000Z,990.46
2018-09-21T10:01:11.977Z,990.58
2018-09-21T10:02:11.971Z,990.66
2018-09-21T10:03:18.242Z,990.65
2018-09-21T10:04:11.943Z,990.79
2018-09-21T10:05:13.611Z,990.79
2018-09-21T10:06:11.925Z,990.80
2018-09-21T10:07:12.900Z,990.72
2018-09-21T10:08:11.901Z,990.91
2018-09-21T10:09:12.528Z,990.88
2018-09-21T10:10:12.172Z,990.99
2018-09-21T10:11:12.128Z,990.97
2018-09-21T10:12:12.134Z,990.96
2018-09-21T10:13:11.846Z,991.05
2018-09-21T10:14:12.171Z,990.96
2018-09-21T10:15:22.547Z,990.95
2018-09-21T10:16:11.806Z,990.91
2018-09-21T10:17:11.819Z,990.92
2018-09-21T10:18:12.122Z,990.89
2018-09-21T10:19:11.785Z,990.86
2018-09-21T10:20:11.790Z,990.94
2018-09-21T10:21:11.755Z,990.84
2018-09-21T10:22:12.053Z,990.93
2018-09-21T10:23:11.737Z,990.87
2018-09-21T10:24:11.849Z,990.92
2018-09-21T10:25:11.812Z,990.91
2018-09-21T10:26:11.966Z,990.94
2018-09-21T10:27:11.715Z,990.85
2018-09-21T10:28:11.965Z,990.86
2018-09-21T10:29:11.672Z,990.88
2018-09-21T10:30:17.328Z,990.83
2018-09-21T10:31:11.645Z,990.85
2018-09-21T10:32:11.626Z,990.78
2018-09-21T10:33:11.665Z,990.81
2018-09-21T10:34:12.174Z,990.87
2018-09-21T10:35:11.597Z,990.90
2018-09-21T10:36:11.617Z,990.85
2018-09-21T10:37:11.640Z,990.94
2018-09-21T10:38:11.863Z,990.91
2018-09-21T10:39:11.621Z,990.91
2018-09-21T10:40:11.916Z,990.90
2018-09-21T10:41:11.532Z,990.89
2018-09-21T10:42:11.549Z,990.87
2018-09-21T10:43:11.583Z,990.83
2018-09-21T10:44:11.513Z,990.91
2018-09-21T10:45:16.253Z,990.81
2018-09-21T10:46:11.499Z,990.79
2018-09-21T10:47:11.466Z,990.79
2018-09-21T10:48:11.471Z,990.81
2018-09-21T10:49:11.571Z,990.79
2018-09-21T10:50:11.436Z,990.72
2018-09-21T10:51:11.416Z,990.75
2018-09-21T10:52:11.524Z,990.76
2018-09-21T10:53:11.397Z,990.76
2018-09-21T10:54:11.401Z,990.86
2018-09-21T10:55:11.466Z,990.90
2018-09-21T10:56:11.637Z,990.85
2018-09-21T10:57:11.356Z,990.90
2018-09-21T10:58:11.337Z,990.77
2018-09-21T10:59:11.340Z,990.79
2018-09-21T11:00:18.187Z,990.79
2018-09-21T11:01:11.311Z,990.78
2018-09-21T11:02:11.307Z,990.81
2018-09-21T11:03:11.288Z,990.73
2018-09-21T11:04:11.322Z,990.83
2018-09-21T11:05:11.423Z,990.73
2018-09-21T11:06:11.525Z,990.71
2018-09-21T11:07:11.347Z,990.66
2018-09-21T11:08:11.244Z,990.64
2018-09-21T11:09:11.219Z,990.62
2018-09-21T11:10:11.210Z,990.60
2018-09-21T11:11:11.200Z,990.65
2018-09-21T11:12:11.315Z,990.65
2018-09-21T11:13:11.237Z,990.66
2018-09-21T11:14:11.175Z,990.63
2018-09-21T11:15:19.449Z,990.63
2018-09-21T11:16:11.139Z,990.71
2018-09-21T11:17:11.401Z,990.68
2018-09-21T11:18:11.133Z,990.68
2018-09-21T11:19:11.127Z,990.65
2018-09-21T11:20:11.138Z,990.68
2018-09-21T11:21:11.090Z,990.75
2018-09-21T11:22:11.090Z,990.80
2018-09-21T11:23:11.059Z,990.73
2018-09-21T11:24:11.156Z,990.71
2018-09-21T11:25:11.042Z,990.64
2018-09-21T11:26:11.034Z,990.72
2018-09-21T11:27:11.302Z,990.64
2018-09-21T11:28:11.019Z,990.66
2018-09-21T11:29:10.997Z,990.64
2018-09-21T11:30:25.089Z,990.57
2018-09-21T11:31:10.978Z,990.64
2018-09-21T11:32:11.345Z,990.70
2018-09-21T11:33:11.021Z,990.80
2018-09-21T11:34:11.067Z,990.89
2018-09-21T11:35:12.459Z,990.83
2018-09-21T11:36:10.922Z,990.80
2018-09-21T11:37:10.916Z,990.83
2018-09-21T11:38:10.898Z,990.84
2018-09-21T11:39:10.977Z,990.89
2018-09-21T11:40:10.904Z,990.89
2018-09-21T11:41:11.272Z,990.85
2018-09-21T11:42:10.855Z,990.94
2018-09-21T11:43:11.378Z,990.88
2018-09-21T11:44:10.833Z,990.92
2018-09-21T11:45:15.157Z,990.91
2018-09-21T11:46:10.912Z,990.93
2018-09-21T11:47:11.078Z,990.97
2018-09-21T11:48:10.793Z,990.98
2018-09-21T11:49:10.796Z,990.99
2018-09-21T11:50:11.039Z,991.06
2018-09-21T11:51:10.751Z,991.08
2018-09-21T11:52:10.747Z,991.08
2018-09-21T11:53:10.758Z,991.11
2018-09-21T11:54:10.749Z,991.11
2018-09-21T11:55:10.706Z,991.11
2018-09-21T11:56:10.811Z,991.12
2018-09-21T11:57:10.969Z,991.13
2018-09-21T11:58:10.782Z,991.13
2018-09-21T11:59:10.867Z,991.16
2018-09-21T12:00:18.638Z,991.17
2018-09-21T12:01:11.185Z,991.18
2018-09-21T12:02:11.281Z,991.19
2018-09-21T12:03:10.757Z,991.15
2018-09-21T12:04:10.627Z,991.13
2018-09-21T12:05:10.622Z,991.12
2018-09-21T12:06:10.659Z,991.06
2018-09-21T12:07:10.581Z,991.07
2018-09-21T12:08:10.585Z,990.95
2018-09-21T12:09:10.549Z,990.94
2018-09-21T12:10:10.589Z,990.99
2018-09-21T12:11:10.565Z,991.04
2018-09-21T12:12:10.521Z,991.10
2018-09-21T12:13:10.508Z,991.12
2018-09-21T12:14:10.514Z,991.10
2018-09-21T12:15:20.985Z,991.06
2018-09-21T12:16:10.792Z,991.05
2018-09-21T12:17:10.679Z,991.02
2018-09-21T12:18:10.468Z,991.04
2018-09-21T12:19:10.459Z,991.04
2018-09-21T12:20:10.434Z,991.03
2018-09-21T12:21:10.425Z,991.05
2018-09-21T12:22:10.720Z,991.00
2018-09-21T12:23:10.706Z,991.03
2018-09-21T12:24:10.725Z,991.03
2018-09-21T12:25:10.395Z,991.00
2018-09-21T12:26:10.371Z,991.05
2018-09-21T12:27:10.353Z,991.06
2018-09-21T12:28:10.349Z,991.13